Aireys Inlet, Victoria

2:24 PM AEST on May 23, 2015 (GMT +1000)
Otway National Park Bushland | | Change Station
CLOSE
Current Station
Personal Weather Station
Location: Wensleydale, VICTORIA
Elevation: 722 ft
Nearby Weather Stations

Elev 722 ft 38.35 °S, 144.04 °E | Updated 27 seconds ago

Overcast
Overcast
52.6 °F
Feels Like 52.6 °F
N
0.0
Wind Variable Wind from NE
Gusts 4.0 mph

Today
High -- | Low -- °F
--% Chance of Precip.
Yesterday
High -- | Low -- °F
Precip. -- in
7:24 AM 5:15 PM
Waxing Crescent, 26% visible
Pressure 30.45 in
Visibility 6.2 miles
Clouds Overcast 2500 ft
Dew Point 47 °F
Humidity 80%
Rainfall 0.00 in
Snow Depth Not available.
UV 1 out of 12
Pollen Not available.
Air Quality Not available.
Flu Activity Not available.
METAR YMAV 230400Z AUTO 19005KT 140V240 9999 // OVC025 13/07 Q1031

More Conditions Fewer Conditions

Pressure 30.45 in
Visibility 6.2 miles
Clouds Overcast 2500 ft
Dew Point 47 °F
Humidity 80%
Rainfall 0.00 in
Snow Depth Not available.
UV 1 out of 12
Pollen Not available.
Air Quality Not available.
Flu Activity Not available.
METAR YMAV 230400Z AUTO 19005KT 140V240 9999 // OVC025 13/07 Q1031

More Conditions Fewer Conditions

10-Day Weather Forecast

Almanac

Astronomy

May. 23, 2015 Rise Set
Actual Time
Civil Twilight
Nautical Twilight
Astronomical Twilight
Moon
Length of Visible Light
Length of Day
Tomorrow will be .
, % of the Moon is Illuminated

Today's Extremes

Country Highs Country Lows

Community

WunderPhotos

Upload Photos

1,823,390 photos uploaded!

WunderBlogs® & News

Nearby

Air Quality

  Air Quality AQ Index Pollutant
Not available.

Snow Depth

Station Depth Elevation

Earthquake Activity

City Distance Mag. Time & Date
Minimum magnitude displayed is 2.5.

Coastal Water Temperatures

Place Temperature

Stations

Nearby Weather Stations

Station Location Temp. Windchill Dew Point Humidity Wind Precip. Elev Updated Type